createdAt,value
2019-04-26T00:00:53.280Z,10.06
2019-04-26T00:02:10.351Z,10.06
2019-04-26T00:02:53.252Z,10.06
2019-04-26T00:04:53.283Z,10.06
2019-04-26T00:06:53.249Z,10.06
2019-04-26T00:08:53.260Z,10.06
2019-04-26T00:10:53.215Z,10
2019-04-26T00:12:53.261Z,10
2019-04-26T00:14:54.151Z,10
2019-04-26T00:16:53.274Z,10
2019-04-26T00:17:10.174Z,10
2019-04-26T00:18:53.337Z,10
2019-04-26T00:20:53.260Z,9.94
2019-04-26T00:22:54.177Z,10
2019-04-26T00:24:53.285Z,10
2019-04-26T00:26:53.265Z,9.94
2019-04-26T00:28:53.250Z,9.94
2019-04-26T00:30:53.275Z,9.94
2019-04-26T00:32:10.666Z,9.94
2019-04-26T00:32:53.271Z,9.94
2019-04-26T00:34:53.344Z,9.88
2019-04-26T00:36:53.195Z,9.88
2019-04-26T00:38:53.268Z,9.88
2019-04-26T00:40:53.255Z,9.88
2019-04-26T00:42:53.268Z,9.81
2019-04-26T00:44:53.263Z,9.81
2019-04-26T00:46:53.269Z,9.75
2019-04-26T00:47:11.172Z,9.75
2019-04-26T00:48:53.268Z,9.75
2019-04-26T00:50:53.289Z,9.75
2019-04-26T00:52:53.287Z,9.75
2019-04-26T00:54:53.279Z,9.75
2019-04-26T00:56:53.257Z,9.75
2019-04-26T00:58:53.223Z,9.75
2019-04-26T01:00:53.284Z,9.69
2019-04-26T01:02:10.217Z,9.69
2019-04-26T01:02:53.255Z,9.69
2019-04-26T01:04:53.260Z,9.63
2019-04-26T01:06:53.221Z,9.63
2019-04-26T01:08:53.253Z,9.63
2019-04-26T01:10:53.274Z,9.56
2019-04-26T01:12:53.281Z,9.56
2019-04-26T01:14:53.277Z,9.56
2019-04-26T01:16:53.275Z,9.56
2019-04-26T01:17:11.071Z,9.56
2019-04-26T01:18:53.244Z,9.56
2019-04-26T01:20:53.298Z,9.56
2019-04-26T01:22:53.357Z,9.56
2019-04-26T01:24:53.230Z,9.5
2019-04-26T01:26:53.354Z,9.56
2019-04-26T01:28:53.257Z,9.5
2019-04-26T01:30:53.253Z,9.56
2019-04-26T01:32:10.327Z,9.56
2019-04-26T01:32:53.259Z,9.56
2019-04-26T01:34:53.277Z,9.56
2019-04-26T01:36:53.266Z,9.56
2019-04-26T01:38:53.269Z,9.56
2019-04-26T01:40:54.102Z,9.56
2019-04-26T01:42:53.259Z,9.56
2019-04-26T01:44:53.343Z,9.5
2019-04-26T01:46:53.269Z,9.5
2019-04-26T01:47:10.180Z,9.5
2019-04-26T01:48:53.277Z,9.5
2019-04-26T01:50:53.261Z,9.5
2019-04-26T01:52:53.277Z,9.5
2019-04-26T01:54:53.224Z,9.5
2019-04-26T01:56:53.283Z,9.44
2019-04-26T01:58:53.350Z,9.44
2019-04-26T02:00:53.282Z,9.44
2019-04-26T02:02:10.288Z,9.44
2019-04-26T02:02:53.254Z,9.44
2019-04-26T02:04:53.274Z,9.44
2019-04-26T02:06:53.271Z,9.44
2019-04-26T02:08:53.256Z,9.44
2019-04-26T02:10:53.344Z,9.44
2019-04-26T02:12:53.319Z,9.44
2019-04-26T02:14:53.238Z,9.44
2019-04-26T02:16:53.268Z,9.44
2019-04-26T02:17:10.263Z,9.44
2019-04-26T02:18:53.258Z,9.44
2019-04-26T02:20:53.292Z,9.44
2019-04-26T02:22:53.279Z,9.44
2019-04-26T02:24:53.256Z,9.44
2019-04-26T02:26:53.213Z,9.38
2019-04-26T02:28:53.582Z,9.38
2019-04-26T02:30:53.287Z,9.38
2019-04-26T02:32:10.297Z,9.38
2019-04-26T02:32:53.286Z,9.38
2019-04-26T02:34:53.258Z,9.38
2019-04-26T02:36:58.207Z,9.38
2019-04-26T02:38:53.252Z,9.38
2019-04-26T02:40:53.274Z,9.38
2019-04-26T02:42:53.247Z,9.38
2019-04-26T02:44:53.216Z,9.38
2019-04-26T02:46:53.306Z,9.38
2019-04-26T02:47:10.188Z,9.38
2019-04-26T02:48:53.293Z,9.38
2019-04-26T02:50:53.300Z,9.38
2019-04-26T02:52:53.303Z,9.38
2019-04-26T02:54:53.275Z,9.38
2019-04-26T02:56:53.256Z,9.38
2019-04-26T02:58:53.270Z,9.38
2019-04-26T03:00:53.263Z,9.38
2019-04-26T03:02:10.173Z,9.38
2019-04-26T03:02:53.276Z,9.38
2019-04-26T03:04:53.260Z,9.38
2019-04-26T03:07:02.735Z,9.38
2019-04-26T03:08:53.278Z,9.38
2019-04-26T03:10:53.218Z,9.38
2019-04-26T03:12:53.255Z,9.38
2019-04-26T03:14:53.231Z,9.31
2019-04-26T03:16:53.264Z,9.31
2019-04-26T03:17:10.170Z,9.31
2019-04-26T03:18:53.270Z,9.31
2019-04-26T03:20:53.307Z,9.31
2019-04-26T03:22:53.272Z,9.31
2019-04-26T03:24:53.405Z,9.31
2019-04-26T03:26:53.313Z,9.31
2019-04-26T03:28:53.312Z,9.31
2019-04-26T03:30:53.614Z,9.38
2019-04-26T03:32:15.742Z,9.31
2019-04-26T03:32:54.086Z,9.31
2019-04-26T03:34:55.100Z,9.31
2019-04-26T03:36:53.241Z,9.31
2019-04-26T03:38:53.276Z,9.31
2019-04-26T03:40:53.270Z,9.31
2019-04-26T03:42:53.268Z,9.31
2019-04-26T03:44:53.264Z,9.25
2019-04-26T03:46:53.260Z,9.25
2019-04-26T03:47:10.231Z,9.25
2019-04-26T03:48:53.223Z,9.25
2019-04-26T03:50:53.274Z,9.25
2019-04-26T03:52:53.277Z,9.25
2019-04-26T03:54:53.305Z,9.25
2019-04-26T03:56:53.256Z,9.25
2019-04-26T03:58:53.338Z,9.25
2019-04-26T04:00:53.287Z,9.25
2019-04-26T04:02:10.216Z,9.25
2019-04-26T04:02:53.266Z,9.19
2019-04-26T04:04:53.221Z,9.19
2019-04-26T04:07:02.949Z,9.19
2019-04-26T04:08:53.245Z,9.13
2019-04-26T04:10:53.282Z,9.13
2019-04-26T04:12:53.271Z,9.13
2019-04-26T04:14:53.274Z,9.13
2019-04-26T04:16:53.260Z,9.13
2019-04-26T04:17:10.168Z,9.13
2019-04-26T04:18:54.069Z,9.13
2019-04-26T04:20:53.378Z,9.06
2019-04-26T04:22:53.263Z,9.06
2019-04-26T04:24:53.225Z,9.06
2019-04-26T04:26:53.275Z,9.06
2019-04-26T04:28:53.323Z,9.06
2019-04-26T04:30:53.377Z,9.06
2019-04-26T04:32:10.249Z,9.06
2019-04-26T04:32:53.263Z,9
2019-04-26T04:34:53.291Z,9
2019-04-26T04:36:53.579Z,9
2019-04-26T04:38:55.026Z,9
2019-04-26T04:40:53.465Z,9
2019-04-26T04:42:53.283Z,8.94
2019-04-26T04:44:53.248Z,8.94
2019-04-26T04:46:54.021Z,8.94
2019-04-26T04:47:23.330Z,8.94
2019-04-26T04:48:53.403Z,8.88
2019-04-26T04:50:53.249Z,8.88
2019-04-26T04:52:53.271Z,8.88
2019-04-26T04:55:05.001Z,8.88
2019-04-26T04:56:53.240Z,8.88
2019-04-26T04:58:53.276Z,8.88
2019-04-26T05:00:54.263Z,8.88
2019-04-26T05:02:11.261Z,8.88
2019-04-26T05:02:54.230Z,8.88
2019-04-26T05:04:53.288Z,8.88
2019-04-26T05:06:53.373Z,8.88
2019-04-26T05:08:54.026Z,8.88
2019-04-26T05:10:54.112Z,8.81
2019-04-26T05:12:54.317Z,8.88
2019-04-26T05:14:54.092Z,8.88
2019-04-26T05:16:53.334Z,8.88
2019-04-26T05:17:10.192Z,8.88
2019-04-26T05:18:53.304Z,8.81
2019-04-26T05:20:53.345Z,8.81
2019-04-26T05:22:53.292Z,8.88
2019-04-26T05:24:53.268Z,8.88
2019-04-26T05:26:53.554Z,8.88
2019-04-26T05:28:53.783Z,8.88
2019-04-26T05:30:54.087Z,8.88
2019-04-26T05:32:10.209Z,8.88
2019-04-26T05:32:53.247Z,8.88
2019-04-26T05:34:53.322Z,8.88
2019-04-26T05:36:53.262Z,8.88
2019-04-26T05:38:53.316Z,8.88
2019-04-26T05:40:53.507Z,8.88
2019-04-26T05:42:54.158Z,8.88
2019-04-26T05:44:53.272Z,8.94
2019-04-26T05:46:53.578Z,8.94
2019-04-26T05:47:10.223Z,8.94
2019-04-26T05:48:53.612Z,8.94
2019-04-26T05:50:53.698Z,9
2019-04-26T05:52:53.237Z,9
2019-04-26T05:54:53.988Z,9.06
2019-04-26T05:56:54.257Z,9.13
2019-04-26T05:58:54.462Z,9.25
2019-04-26T06:00:53.946Z,9.31
2019-04-26T06:02:11.118Z,9.31
2019-04-26T06:02:53.271Z,9.31
2019-04-26T06:04:53.501Z,9.38
2019-04-26T06:06:53.285Z,9.38
2019-04-26T06:08:53.818Z,9.31
2019-04-26T06:10:54.152Z,9.38
2019-04-26T06:12:54.326Z,9.38
2019-04-26T06:14:53.275Z,9.31
2019-04-26T06:16:53.278Z,9.31
2019-04-26T06:17:10.186Z,9.31
2019-04-26T06:18:53.301Z,9.38
2019-04-26T06:20:54.049Z,9.38
2019-04-26T06:22:55.213Z,9.38
2019-04-26T06:24:54.196Z,9.38
2019-04-26T06:26:54.256Z,9.38
2019-04-26T06:28:53.316Z,9.44
2019-04-26T06:30:54.143Z,9.5
2019-04-26T06:32:10.235Z,9.5
2019-04-26T06:32:57.267Z,9.5
2019-04-26T06:34:53.763Z,9.5
2019-04-26T06:36:54.496Z,9.44
2019-04-26T06:38:54.445Z,9.5
2019-04-26T06:40:54.545Z,9.56
2019-04-26T06:42:54.702Z,9.56
2019-04-26T06:44:54.879Z,9.63
2019-04-26T06:46:53.405Z,9.69
2019-04-26T06:47:10.203Z,9.69
2019-04-26T06:48:53.236Z,9.75
2019-04-26T06:50:53.228Z,9.69
2019-04-26T06:52:53.264Z,9.69
2019-04-26T06:54:53.360Z,9.69
2019-04-26T06:56:53.217Z,9.69
2019-04-26T06:58:53.292Z,9.69
2019-04-26T07:00:53.288Z,9.88
2019-04-26T07:02:10.178Z,9.88
2019-04-26T07:02:53.286Z,9.94
2019-04-26T07:04:53.234Z,10
2019-04-26T07:06:54.112Z,10
2019-04-26T07:08:57.435Z,10.06
2019-04-26T07:10:53.285Z,10.13
2019-04-26T07:12:53.383Z,10.19
2019-04-26T07:14:53.221Z,10.19
2019-04-26T07:16:53.262Z,10.19
2019-04-26T07:17:10.197Z,10.25
2019-04-26T07:18:53.256Z,10.25
2019-04-26T07:20:53.283Z,10.38
2019-04-26T07:22:53.282Z,10.44
2019-04-26T07:24:53.223Z,10.56
2019-04-26T07:26:53.261Z,10.56
2019-04-26T07:28:53.272Z,10.69
2019-04-26T07:30:53.266Z,10.63
2019-04-26T07:32:10.150Z,10.56
2019-04-26T07:32:53.235Z,10.56
2019-04-26T07:34:53.248Z,10.5
2019-04-26T07:36:53.265Z,10.44
2019-04-26T07:38:54.165Z,10.56
2019-04-26T07:40:53.289Z,10.56
2019-04-26T07:42:53.301Z,10.56
2019-04-26T07:44:53.270Z,10.56
2019-04-26T07:46:53.268Z,10.5
2019-04-26T07:47:11.083Z,10.5
2019-04-26T07:48:53.208Z,10.44
2019-04-26T07:50:53.335Z,10.44
2019-04-26T07:52:53.272Z,10.5
2019-04-26T07:54:53.248Z,10.56
2019-04-26T07:56:54.157Z,10.56
2019-04-26T07:58:53.280Z,10.56
2019-04-26T08:00:53.273Z,10.56
2019-04-26T08:02:11.157Z,10.56
2019-04-26T08:02:53.252Z,10.56
2019-04-26T08:04:53.298Z,10.56
2019-04-26T08:06:53.282Z,10.56
2019-04-26T08:08:53.237Z,10.63
2019-04-26T08:10:53.304Z,10.69
2019-04-26T08:12:53.213Z,10.88
2019-04-26T08:14:53.266Z,10.94
2019-04-26T08:16:53.261Z,10.94
2019-04-26T08:17:10.453Z,10.94
2019-04-26T08:18:54.179Z,10.81
2019-04-26T08:20:53.291Z,11
2019-04-26T08:22:53.294Z,11
2019-04-26T08:24:54.163Z,11.19
2019-04-26T08:26:53.251Z,11.5
2019-04-26T08:28:56.558Z,11.56
2019-04-26T08:30:53.272Z,11.56
2019-04-26T08:32:11.329Z,11.5
2019-04-26T08:32:53.261Z,11.5
2019-04-26T08:34:53.226Z,11.44
2019-04-26T08:36:53.270Z,11.44
2019-04-26T08:38:54.025Z,11.56
2019-04-26T08:40:53.344Z,11.44
2019-04-26T08:42:56.945Z,11.44
2019-04-26T08:44:53.252Z,11.44
2019-04-26T08:46:53.257Z,11.5
2019-04-26T08:47:14.120Z,11.56
2019-04-26T08:48:53.253Z,11.63
2019-04-26T08:50:53.185Z,11.63
2019-04-26T08:52:53.260Z,11.63
2019-04-26T08:54:53.264Z,11.69
2019-04-26T08:56:53.276Z,11.63
2019-04-26T08:58:53.278Z,11.75
2019-04-26T09:00:53.211Z,11.94
2019-04-26T09:02:10.223Z,11.94
2019-04-26T09:02:53.256Z,12
2019-04-26T09:04:53.256Z,12.13
2019-04-26T09:06:53.276Z,12.06
2019-04-26T09:08:53.291Z,12.13
2019-04-26T09:10:53.269Z,12
2019-04-26T09:12:53.249Z,12.25
2019-04-26T09:14:53.167Z,12.19
2019-04-26T09:16:53.275Z,12.06
2019-04-26T09:17:10.202Z,12.06
2019-04-26T09:18:55.801Z,12.13
2019-04-26T09:20:53.178Z,12.25
2019-04-26T09:22:56.216Z,12.31
2019-04-26T09:24:55.025Z,12.31
2019-04-26T09:26:53.268Z,12.25
2019-04-26T09:28:56.497Z,12.5
2019-04-26T09:30:53.269Z,12.44
2019-04-26T09:32:10.254Z,12.38
2019-04-26T09:32:53.344Z,12.44
2019-04-26T09:34:53.259Z,12.44
2019-04-26T09:36:53.265Z,12.44
2019-04-26T09:38:53.358Z,12.56
2019-04-26T09:40:56.189Z,12.75
2019-04-26T09:42:53.254Z,12.88
2019-04-26T09:44:53.259Z,13.06
2019-04-26T09:46:54.260Z,13.44
2019-04-26T09:47:10.179Z,13.38
2019-04-26T09:48:53.169Z,13.13
2019-04-26T09:50:53.358Z,13.13
2019-04-26T09:52:53.322Z,13
2019-04-26T09:54:53.222Z,13
2019-04-26T09:56:53.258Z,12.88
2019-04-26T09:58:53.265Z,13.06
2019-04-26T10:00:53.235Z,13.25
2019-04-26T10:02:10.224Z,13.31
2019-04-26T10:02:54.754Z,13.31
2019-04-26T10:04:53.265Z,13.25
2019-04-26T10:06:53.381Z,13.38
2019-04-26T10:08:54.290Z,13.38
2019-04-26T10:10:53.280Z,13.38
2019-04-26T10:12:53.220Z,13.38
2019-04-26T10:14:53.270Z,13.56
2019-04-26T10:16:53.251Z,13.63
2019-04-26T10:17:11.442Z,13.63
2019-04-26T10:18:54.406Z,13.44
2019-04-26T10:20:53.246Z,13.5
2019-04-26T10:22:53.314Z,13.56
2019-04-26T10:24:53.165Z,13.63
2019-04-26T10:26:55.434Z,13.25
2019-04-26T10:28:53.244Z,13.31
2019-04-26T10:30:53.255Z,13.63
2019-04-26T10:32:10.230Z,13.69
2019-04-26T10:32:53.221Z,13.69
2019-04-26T10:34:53.277Z,13.69
2019-04-26T10:36:53.265Z,13.5
2019-04-26T10:38:54.403Z,13.56
2019-04-26T10:40:53.159Z,13.75
2019-04-26T10:42:53.359Z,13.81
2019-04-26T10:44:54.139Z,13.88
2019-04-26T10:46:55.509Z,14.19
2019-04-26T10:47:10.185Z,14.25
2019-04-26T10:48:53.279Z,14.06
2019-04-26T10:50:53.285Z,14
2019-04-26T10:52:55.478Z,14.13
2019-04-26T10:54:53.372Z,14.25
2019-04-26T10:56:54.827Z,14.25
2019-04-26T10:58:54.116Z,14.56
2019-04-26T11:00:54.097Z,14.5
2019-04-26T11:02:10.234Z,14.44
2019-04-26T11:02:53.271Z,14.38
2019-04-26T11:04:53.221Z,14.19
2019-04-26T11:06:53.255Z,14.31
2019-04-26T11:08:53.266Z,14.13
2019-04-26T11:10:53.412Z,14.19
2019-04-26T11:12:53.355Z,14.38
2019-04-26T11:14:56.870Z,14.63
2019-04-26T11:16:53.327Z,14.81
2019-04-26T11:17:11.366Z,14.75
2019-04-26T11:18:53.262Z,14.69
2019-04-26T11:20:53.268Z,14.63
2019-04-26T11:22:53.319Z,14.63
2019-04-26T11:24:53.725Z,14.5
2019-04-26T11:26:53.278Z,14.38
2019-04-26T11:28:55.601Z,14.31
2019-04-26T11:30:55.833Z,14.44
2019-04-26T11:32:10.231Z,14.56
2019-04-26T11:32:53.264Z,14.63
2019-04-26T11:34:54.394Z,14.69
2019-04-26T11:36:53.273Z,14.44
2019-04-26T11:38:54.142Z,14.44
2019-04-26T11:41:05.332Z,14.56
2019-04-26T11:42:53.255Z,14.63
2019-04-26T11:45:05.320Z,14.75
2019-04-26T11:46:53.280Z,14.5
2019-04-26T11:47:10.195Z,14.5
2019-04-26T11:48:58.734Z,14.38
2019-04-26T11:50:53.681Z,14.56
2019-04-26T11:52:53.342Z,15
2019-04-26T11:54:55.109Z,15
2019-04-26T11:56:53.217Z,15.13
2019-04-26T11:58:56.698Z,15
2019-04-26T12:00:53.268Z,14.88
2019-04-26T12:02:12.156Z,14.88
2019-04-26T12:02:53.317Z,14.94
2019-04-26T12:04:53.892Z,15.06
2019-04-26T12:06:53.280Z,15.44
2019-04-26T12:08:53.263Z,15.38
2019-04-26T12:10:53.222Z,15.06
2019-04-26T12:13:04.854Z,15.06
2019-04-26T12:14:53.271Z,15.13
2019-04-26T12:16:58.709Z,15.31
2019-04-26T12:17:10.210Z,15.38
2019-04-26T12:18:54.241Z,15.56
2019-04-26T12:20:53.272Z,15.5
2019-04-26T12:22:53.217Z,15.5
2019-04-26T12:24:53.262Z,15.5
2019-04-26T12:26:55.852Z,15.44
2019-04-26T12:28:53.262Z,15.63
2019-04-26T12:30:54.102Z,15.56
2019-04-26T12:32:10.253Z,15.5
2019-04-26T12:32:53.245Z,15.56
2019-04-26T12:34:54.145Z,15.75
2019-04-26T12:36:53.232Z,15.88
2019-04-26T12:38:53.206Z,15.75
2019-04-26T12:40:53.338Z,15.75
2019-04-26T12:42:53.251Z,15.88
2019-04-26T12:44:53.278Z,16.06
2019-04-26T12:46:53.293Z,16.13
2019-04-26T12:47:10.182Z,16
2019-04-26T12:48:54.150Z,16.06
2019-04-26T12:50:53.273Z,15.94
2019-04-26T12:52:55.452Z,15.94
2019-04-26T12:54:53.175Z,16
2019-04-26T12:56:53.210Z,15.88
2019-04-26T12:58:53.298Z,15.88
2019-04-26T13:00:54.420Z,16.25
2019-04-26T13:02:10.227Z,16.25
2019-04-26T13:02:54.143Z,16.25
2019-04-26T13:04:53.275Z,16.31
2019-04-26T13:06:53.259Z,16.19
2019-04-26T13:08:54.777Z,16.13
2019-04-26T13:10:53.208Z,16.06
2019-04-26T13:12:53.207Z,16
2019-04-26T13:14:54.096Z,16.13
2019-04-26T13:16:53.267Z,16.19
2019-04-26T13:17:10.199Z,16.19
2019-04-26T13:18:53.257Z,16.31
2019-04-26T13:20:53.261Z,16.56
2019-04-26T13:22:54.161Z,16.75
2019-04-26T13:24:53.226Z,16.56
2019-04-26T13:26:53.246Z,16.56
2019-04-26T13:28:57.000Z,16.56
2019-04-26T13:30:53.333Z,16.31
2019-04-26T13:32:10.210Z,16.25
2019-04-26T13:32:54.630Z,16.38
2019-04-26T13:34:53.231Z,16.44
2019-04-26T13:36:53.261Z,16.31
2019-04-26T13:38:53.187Z,16.5
2019-04-26T13:40:53.216Z,16.5
2019-04-26T13:42:53.263Z,16.44
2019-04-26T13:44:53.274Z,16.5
2019-04-26T13:46:53.266Z,17.06
2019-04-26T13:47:10.176Z,17.06
2019-04-26T13:48:53.286Z,17.19
2019-04-26T13:50:53.316Z,17.56
2019-04-26T13:52:54.062Z,17.38
2019-04-26T13:54:55.338Z,17.44
2019-04-26T13:56:53.277Z,17.5
2019-04-26T13:58:54.205Z,17.5
2019-04-26T14:00:53.269Z,17.69
2019-04-26T14:02:11.559Z,17.88
2019-04-26T14:02:53.266Z,18
2019-04-26T14:04:54.146Z,18.38
2019-04-26T14:06:53.326Z,18.75
2019-04-26T14:08:53.825Z,18.38
2019-04-26T14:10:53.287Z,18.38
2019-04-26T14:12:53.260Z,19.06
2019-04-26T14:14:53.295Z,18.88
2019-04-26T14:16:55.710Z,18.88
2019-04-26T14:17:10.245Z,18.88
2019-04-26T14:18:53.603Z,18.88
2019-04-26T14:20:54.618Z,18.75
2019-04-26T14:22:53.288Z,18.69
2019-04-26T14:24:56.899Z,18.81
2019-04-26T14:26:53.269Z,19.69
2019-04-26T14:28:54.151Z,19.81
2019-04-26T14:30:53.231Z,19.44
2019-04-26T14:32:10.247Z,19.44
2019-04-26T14:32:56.861Z,19.63
2019-04-26T14:34:53.252Z,19.06
2019-04-26T14:37:05.508Z,19.25
2019-04-26T14:39:05.165Z,19.63
2019-04-26T14:41:03.549Z,18.94
2019-04-26T14:43:05.883Z,19.25
2019-04-26T14:44:53.169Z,18.75
2019-04-26T14:46:56.562Z,18.69
2019-04-26T14:47:14.066Z,18.81
2019-04-26T14:49:01.272Z,19.5
2019-04-26T14:50:53.415Z,19.94
2019-04-26T14:52:53.256Z,19.63
2019-04-26T14:54:53.255Z,19.31
2019-04-26T14:56:53.264Z,19.19
2019-04-26T14:58:53.257Z,18.81
2019-04-26T15:00:55.779Z,18.25
2019-04-26T15:02:10.528Z,17.88
2019-04-26T15:02:56.078Z,17.69
2019-04-26T15:04:53.413Z,17.44
2019-04-26T15:06:57.849Z,17.13
2019-04-26T15:08:53.258Z,16.94
2019-04-26T15:11:00.628Z,16.69
2019-04-26T15:13:01.586Z,16.56
2019-04-26T15:14:56.566Z,16.56
2019-04-26T15:16:53.223Z,16.5
2019-04-26T15:17:10.183Z,16.5
2019-04-26T15:18:53.343Z,16.63
2019-04-26T15:20:56.770Z,16.56
2019-04-26T15:22:53.360Z,16.38
2019-04-26T15:24:53.287Z,16.25
2019-04-26T15:26:53.268Z,16.19
2019-04-26T15:28:53.262Z,16.06
2019-04-26T15:30:53.314Z,16.06
2019-04-26T15:32:10.188Z,16.06
2019-04-26T15:32:53.235Z,16.13
2019-04-26T15:34:54.947Z,16.25
2019-04-26T15:36:54.250Z,16.19
2019-04-26T15:38:53.278Z,16.19
2019-04-26T15:40:53.247Z,16.25
2019-04-26T15:42:59.494Z,16.38
2019-04-26T15:44:53.296Z,16.5
2019-04-26T15:46:53.708Z,16.56
2019-04-26T15:47:10.812Z,16.56
2019-04-26T15:48:54.438Z,16.69
2019-04-26T15:50:53.900Z,16.56
2019-04-26T15:52:53.281Z,16.81
2019-04-26T15:54:58.397Z,16.81
2019-04-26T15:56:53.722Z,16.56
2019-04-26T15:58:53.317Z,16.5
2019-04-26T16:00:53.264Z,17.13
2019-04-26T16:02:10.234Z,17.56
2019-04-26T16:02:54.550Z,17.88
2019-04-26T16:04:54.445Z,18.44
2019-04-26T16:06:53.273Z,18.81
2019-04-26T16:08:53.270Z,18.81
2019-04-26T16:10:53.313Z,18.44
2019-04-26T16:12:56.190Z,18.06
2019-04-26T16:14:53.487Z,17.56
2019-04-26T16:16:53.273Z,17.38
2019-04-26T16:17:10.234Z,17.25
2019-04-26T16:18:57.090Z,17.38
2019-04-26T16:20:53.488Z,17.63
2019-04-26T16:22:53.406Z,17.5
2019-04-26T16:24:53.307Z,17.19
2019-04-26T16:26:55.816Z,17.31
2019-04-26T16:28:53.214Z,17.38
2019-04-26T16:30:53.298Z,17.13
2019-04-26T16:32:10.224Z,17
2019-04-26T16:34:53.280Z,16.56
2019-04-26T16:36:53.221Z,16.38
2019-04-26T16:38:56.481Z,16.44
2019-04-26T16:40:54.953Z,16.31
2019-04-26T16:42:55.394Z,16.63
2019-04-26T16:44:55.112Z,17.06
2019-04-26T16:47:00.938Z,17.81
2019-04-26T16:47:10.199Z,17.94
2019-04-26T16:48:55.266Z,18
2019-04-26T16:51:00.859Z,17.88
2019-04-26T16:52:54.140Z,17.44
2019-04-26T16:55:01.985Z,17.38
2019-04-26T16:57:06.127Z,16.94
2019-04-26T16:58:54.714Z,16.81
2019-04-26T17:00:57.179Z,16.75
2019-04-26T17:02:10.262Z,16.81
2019-04-26T17:02:53.254Z,16.81
2019-04-26T17:04:54.110Z,16.75
2019-04-26T17:06:53.217Z,16.56
2019-04-26T17:09:00.443Z,16.56
2019-04-26T17:10:56.603Z,16.38
2019-04-26T17:12:54.356Z,16.25
2019-04-26T17:14:53.343Z,16.38
2019-04-26T17:16:53.367Z,16.38
2019-04-26T17:17:12.306Z,16.38
2019-04-26T17:18:55.556Z,16.38
2019-04-26T17:20:54.197Z,16.5
2019-04-26T17:22:59.229Z,16.56
2019-04-26T17:24:53.478Z,16.56
2019-04-26T17:26:53.269Z,16.5
2019-04-26T17:28:55.451Z,16.56
2019-04-26T17:30:53.236Z,16.56
2019-04-26T17:32:13.766Z,16.56
2019-04-26T17:32:55.176Z,16.5
2019-04-26T17:34:54.405Z,16.5
2019-04-26T17:36:53.357Z,16.38
2019-04-26T17:38:53.300Z,16.38
2019-04-26T17:40:53.255Z,16.38
2019-04-26T17:42:53.262Z,16.38
2019-04-26T17:44:53.311Z,16.31
2019-04-26T17:46:56.505Z,16.25
2019-04-26T17:47:10.674Z,16.25
2019-04-26T17:48:53.344Z,16.19
2019-04-26T17:50:53.286Z,16.31
2019-04-26T17:52:53.312Z,16.19
2019-04-26T17:54:53.283Z,16.19
2019-04-26T17:56:53.349Z,16.19
2019-04-26T17:58:54.815Z,16.13
2019-04-26T18:00:56.358Z,16.06
2019-04-26T18:02:20.329Z,16
2019-04-26T18:02:53.271Z,16
2019-04-26T18:05:00.287Z,15.94
2019-04-26T18:07:02.848Z,15.88
2019-04-26T18:08:55.136Z,15.81
2019-04-26T18:10:53.266Z,15.81
2019-04-26T18:12:54.152Z,15.81
2019-04-26T18:14:53.248Z,15.69
2019-04-26T18:16:57.057Z,15.56
2019-04-26T18:17:10.224Z,15.5
2019-04-26T18:18:54.235Z,15.44
2019-04-26T18:20:53.217Z,15.31
2019-04-26T18:22:53.262Z,15.19
2019-04-26T18:24:53.266Z,15.13
2019-04-26T18:28:55.174Z,15.06
2019-04-26T18:30:53.293Z,15
2019-04-26T18:32:10.226Z,15
2019-04-26T18:32:53.263Z,14.94
2019-04-26T18:34:53.638Z,14.94
2019-04-26T18:36:53.269Z,14.81
2019-04-26T18:38:53.686Z,14.69
2019-04-26T18:41:00.397Z,14.69
2019-04-26T18:42:55.061Z,14.63
2019-04-26T18:44:53.962Z,14.56
2019-04-26T18:46:53.597Z,14.5
2019-04-26T18:47:10.245Z,14.44
2019-04-26T18:48:53.542Z,14.31
2019-04-26T18:50:53.247Z,14.19
2019-04-26T18:52:56.474Z,14.13
2019-04-26T18:54:53.305Z,14.13
2019-04-26T18:56:53.600Z,14.06
2019-04-26T18:58:55.603Z,14
2019-04-26T19:00:53.259Z,13.94
2019-04-26T19:02:11.377Z,14
2019-04-26T19:02:55.329Z,13.94
2019-04-26T19:04:53.289Z,13.94
2019-04-26T19:06:53.263Z,13.81
2019-04-26T19:08:53.228Z,13.69
2019-04-26T19:11:00.588Z,13.56
2019-04-26T19:12:56.353Z,13.5
2019-04-26T19:15:03.036Z,13.5
2019-04-26T19:16:58.651Z,13.44
2019-04-26T19:17:11.947Z,13.44
2019-04-26T19:18:53.267Z,13.5
2019-04-26T19:20:53.381Z,13.44
2019-04-26T19:22:53.359Z,13.38
2019-04-26T19:24:56.439Z,13.19
2019-04-26T19:26:53.226Z,13.13
2019-04-26T19:28:53.219Z,12.94
2019-04-26T19:30:53.310Z,12.94
2019-04-26T19:32:11.754Z,13
2019-04-26T19:32:53.884Z,13
2019-04-26T19:34:53.277Z,13
2019-04-26T19:36:56.272Z,13.06
2019-04-26T19:38:53.323Z,13.06
2019-04-26T19:40:53.259Z,13
2019-04-26T19:42:57.298Z,13.06
2019-04-26T19:45:09.293Z,13.06
2019-04-26T19:46:57.982Z,13.13
2019-04-26T19:47:11.918Z,13.13
2019-04-26T19:48:56.326Z,13.19
2019-04-26T19:50:53.248Z,13.19
2019-04-26T19:52:53.210Z,13.19
2019-04-26T19:54:53.273Z,13.44
2019-04-26T19:56:56.498Z,13.38
2019-04-26T19:58:57.351Z,13
2019-04-26T20:00:53.301Z,12.75
2019-04-26T20:02:12.644Z,12.69
2019-04-26T20:02:53.255Z,12.63
2019-04-26T20:04:53.274Z,12.31
2019-04-26T20:06:55.242Z,12.13
2019-04-26T20:08:53.272Z,11.88
2019-04-26T20:10:53.291Z,11.63
2019-04-26T20:12:53.273Z,11.63
2019-04-26T20:14:58.253Z,11.56
2019-04-26T20:16:53.249Z,11.44
2019-04-26T20:17:13.068Z,11.38
2019-04-26T20:18:53.273Z,11.31
2019-04-26T20:20:53.363Z,11.5
2019-04-26T20:22:53.294Z,11.44
2019-04-26T20:24:57.073Z,11.31
2019-04-26T20:26:53.275Z,11.25
2019-04-26T20:28:53.216Z,11
2019-04-26T20:30:53.254Z,10.69
2019-04-26T20:32:12.479Z,10.56
2019-04-26T20:32:56.331Z,10.44
2019-04-26T20:34:53.270Z,10.44
2019-04-26T20:36:53.294Z,10.31
2019-04-26T20:38:53.283Z,10.5
2019-04-26T20:40:53.475Z,10.56
2019-04-26T20:43:01.568Z,10.63
2019-04-26T20:44:53.756Z,10.56
2019-04-26T20:46:53.282Z,10.69
2019-04-26T20:47:12.498Z,10.69
2019-04-26T20:48:53.264Z,10.69
2019-04-26T20:50:55.426Z,10.75
2019-04-26T20:53:00.033Z,10.81
2019-04-26T20:54:54.130Z,10.81
2019-04-26T20:56:55.524Z,10.88
2019-04-26T20:58:53.286Z,10.94
2019-04-26T21:00:54.306Z,10.94
2019-04-26T21:02:11.949Z,10.81
2019-04-26T21:03:00.743Z,10.81
2019-04-26T21:04:53.420Z,10.75
2019-04-26T21:06:53.562Z,10.63
2019-04-26T21:08:54.092Z,10.56
2019-04-26T21:10:55.966Z,10.5
2019-04-26T21:12:54.879Z,10.5
2019-04-26T21:14:53.535Z,10.38
2019-04-26T21:16:53.283Z,10.38
2019-04-26T21:17:11.491Z,10.31
2019-04-26T21:18:53.354Z,10.31
2019-04-26T21:20:53.274Z,10.31
2019-04-26T21:23:02.115Z,10.31
2019-04-26T21:24:55.228Z,10.31
2019-04-26T21:26:54.523Z,10.25
2019-04-26T21:28:54.213Z,10.25
2019-04-26T21:30:54.452Z,10.19
2019-04-26T21:32:10.254Z,10.19
2019-04-26T21:32:55.887Z,10.25
2019-04-26T21:34:53.894Z,10.19
2019-04-26T21:36:53.352Z,10.19
2019-04-26T21:38:53.262Z,10.06
2019-04-26T21:40:55.253Z,9.94
2019-04-26T21:42:59.234Z,9.88
2019-04-26T21:44:54.845Z,9.81
2019-04-26T21:46:56.306Z,9.81
2019-04-26T21:47:10.259Z,9.88
2019-04-26T21:48:53.555Z,9.81
2019-04-26T21:50:53.800Z,9.75
2019-04-26T21:52:54.103Z,9.75
2019-04-26T21:54:56.344Z,9.69
2019-04-26T21:56:53.763Z,9.69
2019-04-26T21:58:53.423Z,9.69
2019-04-26T22:00:53.816Z,9.63
2019-04-26T22:02:10.308Z,9.63
2019-04-26T22:02:53.322Z,9.63
2019-04-26T22:04:53.347Z,9.56
2019-04-26T22:06:53.416Z,9.56
2019-04-26T22:08:55.565Z,9.56
2019-04-26T22:10:54.183Z,9.5
2019-04-26T22:12:53.912Z,9.5
2019-04-26T22:14:55.644Z,9.44
2019-04-26T22:16:53.481Z,9.44
2019-04-26T22:17:10.321Z,9.44
2019-04-26T22:18:55.099Z,9.5
2019-04-26T22:20:54.457Z,9.5
2019-04-26T22:22:54.308Z,9.5
2019-04-26T22:24:55.416Z,9.5
2019-04-26T22:26:53.299Z,9.5
2019-04-26T22:28:53.441Z,9.44
2019-04-26T22:30:53.435Z,9.44
2019-04-26T22:32:11.410Z,9.5
2019-04-26T22:32:57.822Z,9.44
2019-04-26T22:34:53.834Z,9.5
2019-04-26T22:36:53.724Z,9.5
2019-04-26T22:38:55.555Z,9.44
2019-04-26T22:40:56.007Z,9.44
2019-04-26T22:42:54.377Z,9.44
2019-04-26T22:44:53.889Z,9.38
2019-04-26T22:46:53.849Z,9.31
2019-04-26T22:47:10.231Z,9.31
2019-04-26T22:49:00.935Z,9.25
2019-04-26T22:50:58.351Z,9.25
2019-04-26T22:52:54.725Z,9.25
2019-04-26T22:54:53.829Z,9.13
2019-04-26T22:56:53.773Z,9.06
2019-04-26T22:58:53.370Z,9
2019-04-26T23:00:53.702Z,9
2019-04-26T23:02:10.198Z,8.94
2019-04-26T23:02:53.452Z,8.94
2019-04-26T23:04:55.846Z,8.88
2019-04-26T23:06:54.234Z,8.94
2019-04-26T23:08:53.989Z,9
2019-04-26T23:10:53.293Z,9
2019-04-26T23:12:53.929Z,9.06
2019-04-26T23:14:55.031Z,9.06